sensor_id;sensor_type;location;lat;lon;timestamp;P1;durP1;ratioP1;P2;durP2;ratioP2
67861;SDS011;54665;51.462;6.698;2022-12-11T00:01:53;67.97;;;14.03;;
67861;SDS011;54665;51.462;6.698;2022-12-11T00:04:18;65.40;;;14.13;;
67861;SDS011;54665;51.462;6.698;2022-12-11T00:06:44;59.35;;;13.50;;
67861;SDS011;54665;51.462;6.698;2022-12-11T00:09:09;59.83;;;12.77;;
67861;SDS011;54665;51.462;6.698;2022-12-11T00:11:34;54.97;;;11.17;;
67861;SDS011;54665;51.462;6.698;2022-12-11T00:14:01;60.83;;;13.18;;
67861;SDS011;54665;51.462;6.698;2022-12-11T00:16:26;65.03;;;12.67;;
67861;SDS011;54665;51.462;6.698;2022-12-11T00:18:52;60.43;;;13.80;;
67861;SDS011;54665;51.462;6.698;2022-12-11T00:21:18;67.70;;;14.07;;
67861;SDS011;54665;51.462;6.698;2022-12-11T00:23:43;61.93;;;13.43;;
67861;SDS011;54665;51.462;6.698;2022-12-11T00:26:11;68.90;;;14.00;;
67861;SDS011;54665;51.462;6.698;2022-12-11T00:28:38;58.57;;;12.97;;
67861;SDS011;54665;51.462;6.698;2022-12-11T00:31:04;64.30;;;13.95;;
67861;SDS011;54665;51.462;6.698;2022-12-11T00:33:31;73.20;;;13.87;;
67861;SDS011;54665;51.462;6.698;2022-12-11T00:35:56;69.35;;;13.63;;
67861;SDS011;54665;51.462;6.698;2022-12-11T00:38:22;60.60;;;13.83;;
67861;SDS011;54665;51.462;6.698;2022-12-11T00:40:48;69.75;;;13.85;;
67861;SDS011;54665;51.462;6.698;2022-12-11T00:43:13;66.80;;;12.20;;
67861;SDS011;54665;51.462;6.698;2022-12-11T00:45:41;63.15;;;13.75;;
67861;SDS011;54665;51.462;6.698;2022-12-11T00:48:08;67.07;;;14.27;;
67861;SDS011;54665;51.462;6.698;2022-12-11T00:50:35;62.30;;;12.97;;
67861;SDS011;54665;51.462;6.698;2022-12-11T00:53:02;61.67;;;12.93;;
67861;SDS011;54665;51.462;6.698;2022-12-11T00:55:28;61.25;;;13.23;;
67861;SDS011;54665;51.462;6.698;2022-12-11T00:57:54;65.43;;;14.60;;
67861;SDS011;54665;51.462;6.698;2022-12-11T01:00:20;57.40;;;13.35;;
67861;SDS011;54665;51.462;6.698;2022-12-11T01:02:49;57.45;;;13.38;;
67861;SDS011;54665;51.462;6.698;2022-12-11T01:05:15;62.65;;;13.02;;
67861;SDS011;54665;51.462;6.698;2022-12-11T01:07:41;55.87;;;12.93;;
67861;SDS011;54665;51.462;6.698;2022-12-11T01:10:06;57.00;;;11.93;;
67861;SDS011;54665;51.462;6.698;2022-12-11T01:12:54;51.57;;;10.83;;
67861;SDS011;54665;51.462;6.698;2022-12-11T01:15:23;52.75;;;11.73;;
67861;SDS011;54665;51.462;6.698;2022-12-11T01:17:50;55.22;;;13.40;;
67861;SDS011;54665;51.462;6.698;2022-12-11T01:20:16;41.93;;;10.13;;
67861;SDS011;54665;51.462;6.698;2022-12-11T01:22:43;57.28;;;12.73;;
67861;SDS011;54665;51.462;6.698;2022-12-11T01:25:08;49.90;;;11.70;;
67861;SDS011;54665;51.462;6.698;2022-12-11T01:27:34;45.42;;;10.90;;
67861;SDS011;54665;51.462;6.698;2022-12-11T01:30:01;49.95;;;12.32;;
67861;SDS011;54665;51.462;6.698;2022-12-11T01:32:27;47.87;;;11.37;;
67861;SDS011;54665;51.462;6.698;2022-12-11T01:34:53;48.55;;;11.85;;
67861;SDS011;54665;51.462;6.698;2022-12-11T01:37:18;46.60;;;10.65;;
67861;SDS011;54665;51.462;6.698;2022-12-11T01:39:45;49.83;;;10.95;;
67861;SDS011;54665;51.462;6.698;2022-12-11T01:42:14;51.77;;;12.83;;
67861;SDS011;54665;51.462;6.698;2022-12-11T01:47:07;54.40;;;12.23;;
67861;SDS011;54665;51.462;6.698;2022-12-11T01:49:32;53.23;;;12.33;;
67861;SDS011;54665;51.462;6.698;2022-12-11T01:52:02;47.70;;;11.18;;
67861;SDS011;54665;51.462;6.698;2022-12-11T01:54:31;52.20;;;11.80;;
67861;SDS011;54665;51.462;6.698;2022-12-11T01:56:59;52.17;;;12.07;;
67861;SDS011;54665;51.462;6.698;2022-12-11T01:59:29;53.50;;;12.30;;
67861;SDS011;54665;51.462;6.698;2022-12-11T02:01:59;58.20;;;12.73;;
67861;SDS011;54665;51.462;6.698;2022-12-11T02:04:29;52.97;;;11.88;;
67861;SDS011;54665;51.462;6.698;2022-12-11T02:06:56;46.35;;;10.77;;
67861;SDS011;54665;51.462;6.698;2022-12-11T02:09:23;50.43;;;10.93;;
67861;SDS011;54665;51.462;6.698;2022-12-11T02:14:37;39.22;;;9.10;;
67861;SDS011;54665;51.462;6.698;2022-12-11T02:17:28;20.63;;;5.47;;
67861;SDS011;54665;51.462;6.698;2022-12-11T02:20:15;52.97;;;11.45;;
67861;SDS011;54665;51.462;6.698;2022-12-11T02:23:03;53.87;;;12.03;;
67861;SDS011;54665;51.462;6.698;2022-12-11T02:25:47;58.53;;;12.38;;
67861;SDS011;54665;51.462;6.698;2022-12-11T02:28:22;57.38;;;12.43;;
67861;SDS011;54665;51.462;6.698;2022-12-11T02:30:53;59.08;;;12.95;;
67861;SDS011;54665;51.462;6.698;2022-12-11T02:33:25;57.97;;;13.35;;
67861;SDS011;54665;51.462;6.698;2022-12-11T02:35:58;46.07;;;10.80;;
67861;SDS011;54665;51.462;6.698;2022-12-11T02:38:30;57.80;;;12.25;;
67861;SDS011;54665;51.462;6.698;2022-12-11T02:40:57;57.70;;;12.57;;
67861;SDS011;54665;51.462;6.698;2022-12-11T02:43:25;59.47;;;12.27;;
67861;SDS011;54665;51.462;6.698;2022-12-11T02:45:51;54.00;;;12.55;;
67861;SDS011;54665;51.462;6.698;2022-12-11T02:48:17;40.47;;;8.90;;
67861;SDS011;54665;51.462;6.698;2022-12-11T02:50:45;58.45;;;12.77;;
67861;SDS011;54665;51.462;6.698;2022-12-11T02:53:13;60.38;;;12.65;;
67861;SDS011;54665;51.462;6.698;2022-12-11T02:55:42;49.10;;;11.93;;
67861;SDS011;54665;51.462;6.698;2022-12-11T02:58:13;55.70;;;12.40;;
67861;SDS011;54665;51.462;6.698;2022-12-11T03:00:44;53.50;;;11.53;;
67861;SDS011;54665;51.462;6.698;2022-12-11T03:03:10;45.08;;;11.07;;
67861;SDS011;54665;51.462;6.698;2022-12-11T03:05:36;53.95;;;12.65;;
67861;SDS011;54665;51.462;6.698;2022-12-11T03:08:02;59.28;;;13.90;;
67861;SDS011;54665;51.462;6.698;2022-12-11T03:10:28;49.33;;;11.53;;
67861;SDS011;54665;51.462;6.698;2022-12-11T03:12:54;52.08;;;12.48;;
67861;SDS011;54665;51.462;6.698;2022-12-11T03:15:22;51.40;;;12.43;;
67861;SDS011;54665;51.462;6.698;2022-12-11T03:18:01;46.03;;;11.23;;
67861;SDS011;54665;51.462;6.698;2022-12-11T03:20:38;61.88;;;13.52;;
67861;SDS011;54665;51.462;6.698;2022-12-11T03:31:06;51.72;;;11.88;;
67861;SDS011;54665;51.462;6.698;2022-12-11T03:33:36;60.08;;;12.52;;
67861;SDS011;54665;51.462;6.698;2022-12-11T03:36:09;62.88;;;12.73;;
67861;SDS011;54665;51.462;6.698;2022-12-11T03:41:23;54.20;;;12.67;;
67861;SDS011;54665;51.462;6.698;2022-12-11T03:43:51;61.15;;;12.25;;
67861;SDS011;54665;51.462;6.698;2022-12-11T03:46:21;56.47;;;12.73;;
67861;SDS011;54665;51.462;6.698;2022-12-11T03:48:47;58.53;;;13.65;;
67861;SDS011;54665;51.462;6.698;2022-12-11T03:51:14;60.97;;;12.88;;
67861;SDS011;54665;51.462;6.698;2022-12-11T03:53:41;55.67;;;13.70;;
67861;SDS011;54665;51.462;6.698;2022-12-11T03:56:08;54.10;;;12.32;;
67861;SDS011;54665;51.462;6.698;2022-12-11T03:58:35;53.42;;;12.57;;
67861;SDS011;54665;51.462;6.698;2022-12-11T04:01:01;57.63;;;13.27;;
67861;SDS011;54665;51.462;6.698;2022-12-11T04:03:26;56.05;;;13.63;;
67861;SDS011;54665;51.462;6.698;2022-12-11T04:05:54;53.10;;;12.73;;
67861;SDS011;54665;51.462;6.698;2022-12-11T04:08:20;66.50;;;14.15;;
67861;SDS011;54665;51.462;6.698;2022-12-11T04:10:46;52.83;;;13.40;;
67861;SDS011;54665;51.462;6.698;2022-12-11T04:13:13;55.03;;;12.70;;
67861;SDS011;54665;51.462;6.698;2022-12-11T04:15:38;49.47;;;12.57;;
67861;SDS011;54665;51.462;6.698;2022-12-11T04:18:05;53.37;;;12.77;;
67861;SDS011;54665;51.462;6.698;2022-12-11T04:20:53;49.47;;;12.95;;
67861;SDS011;54665;51.462;6.698;2022-12-11T04:23:38;54.42;;;12.77;;
67861;SDS011;54665;51.462;6.698;2022-12-11T04:26:23;46.17;;;12.18;;
67861;SDS011;54665;51.462;6.698;2022-12-11T04:28:48;46.67;;;12.10;;
67861;SDS011;54665;51.462;6.698;2022-12-11T04:31:15;53.43;;;13.00;;
67861;SDS011;54665;51.462;6.698;2022-12-11T04:33:43;49.75;;;11.82;;
67861;SDS011;54665;51.462;6.698;2022-12-11T04:36:08;56.63;;;13.10;;
67861;SDS011;54665;51.462;6.698;2022-12-11T04:38:35;52.22;;;12.35;;
67861;SDS011;54665;51.462;6.698;2022-12-11T04:41:02;46.92;;;12.80;;
67861;SDS011;54665;51.462;6.698;2022-12-11T04:43:29;49.75;;;12.75;;
67861;SDS011;54665;51.462;6.698;2022-12-11T04:46:05;45.43;;;12.43;;
67861;SDS011;54665;51.462;6.698;2022-12-11T04:48:30;44.53;;;11.37;;
67861;SDS011;54665;51.462;6.698;2022-12-11T04:50:56;51.38;;;12.43;;
67861;SDS011;54665;51.462;6.698;2022-12-11T04:53:22;46.27;;;12.30;;
67861;SDS011;54665;51.462;6.698;2022-12-11T04:55:48;49.22;;;11.90;;
67861;SDS011;54665;51.462;6.698;2022-12-11T04:58:13;46.33;;;12.40;;
67861;SDS011;54665;51.462;6.698;2022-12-11T05:00:39;46.63;;;11.90;;
67861;SDS011;54665;51.462;6.698;2022-12-11T05:03:05;45.45;;;12.07;;
67861;SDS011;54665;51.462;6.698;2022-12-11T05:05:31;40.23;;;11.37;;
67861;SDS011;54665;51.462;6.698;2022-12-11T05:07:56;39.53;;;11.20;;
67861;SDS011;54665;51.462;6.698;2022-12-11T05:10:21;46.65;;;12.02;;
67861;SDS011;54665;51.462;6.698;2022-12-11T05:12:47;40.63;;;11.77;;
67861;SDS011;54665;51.462;6.698;2022-12-11T05:15:12;41.57;;;10.80;;
67861;SDS011;54665;51.462;6.698;2022-12-11T05:17:37;44.00;;;11.17;;
67861;SDS011;54665;51.462;6.698;2022-12-11T05:20:03;38.83;;;10.40;;
67861;SDS011;54665;51.462;6.698;2022-12-11T05:22:29;39.40;;;10.57;;
67861;SDS011;54665;51.462;6.698;2022-12-11T05:24:55;37.17;;;9.77;;
67861;SDS011;54665;51.462;6.698;2022-12-11T05:27:20;40.47;;;11.68;;
67861;SDS011;54665;51.462;6.698;2022-12-11T05:29:46;41.47;;;11.73;;
67861;SDS011;54665;51.462;6.698;2022-12-11T05:32:11;40.00;;;10.77;;
67861;SDS011;54665;51.462;6.698;2022-12-11T05:34:37;42.87;;;11.97;;
67861;SDS011;54665;51.462;6.698;2022-12-11T05:37:02;47.67;;;12.60;;
67861;SDS011;54665;51.462;6.698;2022-12-11T05:39:28;41.17;;;11.47;;
67861;SDS011;54665;51.462;6.698;2022-12-11T05:41:53;47.40;;;12.43;;
67861;SDS011;54665;51.462;6.698;2022-12-11T05:44:19;42.17;;;12.18;;
67861;SDS011;54665;51.462;6.698;2022-12-11T05:46:44;45.87;;;12.13;;
67861;SDS011;54665;51.462;6.698;2022-12-11T05:49:10;44.60;;;11.77;;
67861;SDS011;54665;51.462;6.698;2022-12-11T05:51:35;42.13;;;12.23;;
67861;SDS011;54665;51.462;6.698;2022-12-11T05:54:03;39.67;;;12.18;;
67861;SDS011;54665;51.462;6.698;2022-12-11T05:56:30;46.22;;;12.30;;
67861;SDS011;54665;51.462;6.698;2022-12-11T05:58:57;47.75;;;12.50;;
67861;SDS011;54665;51.462;6.698;2022-12-11T06:01:31;45.17;;;12.70;;
67861;SDS011;54665;51.462;6.698;2022-12-11T06:04:02;47.25;;;12.63;;
67861;SDS011;54665;51.462;6.698;2022-12-11T06:06:29;44.55;;;12.02;;
67861;SDS011;54665;51.462;6.698;2022-12-11T06:08:55;40.60;;;11.87;;
67861;SDS011;54665;51.462;6.698;2022-12-11T06:11:22;48.42;;;12.30;;
67861;SDS011;54665;51.462;6.698;2022-12-11T06:13:48;47.55;;;13.02;;
67861;SDS011;54665;51.462;6.698;2022-12-11T06:16:14;45.63;;;12.83;;
67861;SDS011;54665;51.462;6.698;2022-12-11T06:18:40;47.38;;;12.65;;
67861;SDS011;54665;51.462;6.698;2022-12-11T06:23:38;46.03;;;12.65;;
67861;SDS011;54665;51.462;6.698;2022-12-11T06:26:04;46.60;;;12.33;;
67861;SDS011;54665;51.462;6.698;2022-12-11T06:28:29;42.13;;;12.70;;
67861;SDS011;54665;51.462;6.698;2022-12-11T06:30:57;50.57;;;13.00;;
67861;SDS011;54665;51.462;6.698;2022-12-11T06:33:23;42.28;;;11.82;;
67861;SDS011;54665;51.462;6.698;2022-12-11T06:35:48;42.80;;;11.60;;
67861;SDS011;54665;51.462;6.698;2022-12-11T06:38:13;43.33;;;12.80;;
67861;SDS011;54665;51.462;6.698;2022-12-11T06:40:39;41.27;;;11.77;;
67861;SDS011;54665;51.462;6.698;2022-12-11T06:43:04;41.50;;;12.27;;
67861;SDS011;54665;51.462;6.698;2022-12-11T06:45:30;41.73;;;11.83;;
67861;SDS011;54665;51.462;6.698;2022-12-11T06:47:55;43.85;;;12.27;;
67861;SDS011;54665;51.462;6.698;2022-12-11T06:50:21;40.50;;;11.40;;
67861;SDS011;54665;51.462;6.698;2022-12-11T06:52:46;44.23;;;12.57;;
67861;SDS011;54665;51.462;6.698;2022-12-11T06:55:11;43.07;;;11.53;;
67861;SDS011;54665;51.462;6.698;2022-12-11T06:57:37;40.40;;;11.70;;
67861;SDS011;54665;51.462;6.698;2022-12-11T07:00:02;41.53;;;11.80;;
67861;SDS011;54665;51.462;6.698;2022-12-11T07:02:28;40.90;;;11.90;;
67861;SDS011;54665;51.462;6.698;2022-12-11T07:04:53;45.90;;;11.93;;
67861;SDS011;54665;51.462;6.698;2022-12-11T07:07:19;41.27;;;11.30;;
67861;SDS011;54665;51.462;6.698;2022-12-11T07:09:44;39.75;;;11.63;;
67861;SDS011;54665;51.462;6.698;2022-12-11T07:12:10;38.80;;;11.03;;
67861;SDS011;54665;51.462;6.698;2022-12-11T07:14:35;39.33;;;11.03;;
67861;SDS011;54665;51.462;6.698;2022-12-11T07:17:00;43.00;;;11.97;;
67861;SDS011;54665;51.462;6.698;2022-12-11T07:19:26;44.83;;;11.77;;
67861;SDS011;54665;51.462;6.698;2022-12-11T07:21:51;40.77;;;11.33;;
67861;SDS011;54665;51.462;6.698;2022-12-11T07:24:17;49.10;;;12.97;;
67861;SDS011;54665;51.462;6.698;2022-12-11T07:26:42;34.17;;;10.57;;
67861;SDS011;54665;51.462;6.698;2022-12-11T07:29:08;38.85;;;10.70;;
67861;SDS011;54665;51.462;6.698;2022-12-11T07:31:33;36.33;;;11.17;;
67861;SDS011;54665;51.462;6.698;2022-12-11T07:34:00;41.33;;;11.30;;
67861;SDS011;54665;51.462;6.698;2022-12-11T07:36:30;39.67;;;12.07;;
67861;SDS011;54665;51.462;6.698;2022-12-11T07:38:57;40.70;;;11.07;;
67861;SDS011;54665;51.462;6.698;2022-12-11T07:41:23;37.13;;;11.57;;
67861;SDS011;54665;51.462;6.698;2022-12-11T07:43:52;35.65;;;10.85;;
67861;SDS011;54665;51.462;6.698;2022-12-11T07:46:19;42.30;;;11.15;;
67861;SDS011;54665;51.462;6.698;2022-12-11T07:48:46;40.22;;;11.00;;
67861;SDS011;54665;51.462;6.698;2022-12-11T07:51:17;37.67;;;10.98;;
67861;SDS011;54665;51.462;6.698;2022-12-11T07:53:47;37.97;;;11.50;;
67861;SDS011;54665;51.462;6.698;2022-12-11T07:56:14;35.53;;;10.60;;
67861;SDS011;54665;51.462;6.698;2022-12-11T07:58:40;40.13;;;11.27;;
67861;SDS011;54665;51.462;6.698;2022-12-11T08:01:12;38.73;;;11.17;;
67861;SDS011;54665;51.462;6.698;2022-12-11T08:03:40;39.30;;;11.45;;
67861;SDS011;54665;51.462;6.698;2022-12-11T08:06:06;40.42;;;10.73;;
67861;SDS011;54665;51.462;6.698;2022-12-11T08:08:32;36.63;;;11.00;;
67861;SDS011;54665;51.462;6.698;2022-12-11T08:11:01;23.90;;;6.13;;
67861;SDS011;54665;51.462;6.698;2022-12-11T08:13:30;35.55;;;10.60;;
67861;SDS011;54665;51.462;6.698;2022-12-11T08:15:56;35.60;;;10.30;;
67861;SDS011;54665;51.462;6.698;2022-12-11T08:18:21;38.13;;;10.93;;
67861;SDS011;54665;51.462;6.698;2022-12-11T08:20:47;39.10;;;10.90;;
67861;SDS011;54665;51.462;6.698;2022-12-11T08:23:12;31.30;;;9.57;;
67861;SDS011;54665;51.462;6.698;2022-12-11T08:25:38;36.50;;;10.47;;
67861;SDS011;54665;51.462;6.698;2022-12-11T08:28:03;36.47;;;10.27;;
67861;SDS011;54665;51.462;6.698;2022-12-11T08:30:30;36.67;;;10.80;;
67861;SDS011;54665;51.462;6.698;2022-12-11T08:32:56;31.60;;;9.75;;
67861;SDS011;54665;51.462;6.698;2022-12-11T08:35:21;29.87;;;9.10;;
67861;SDS011;54665;51.462;6.698;2022-12-11T08:37:46;35.50;;;9.80;;
67861;SDS011;54665;51.462;6.698;2022-12-11T08:40:12;31.08;;;9.48;;
67861;SDS011;54665;51.462;6.698;2022-12-11T08:42:38;32.43;;;9.13;;
67861;SDS011;54665;51.462;6.698;2022-12-11T08:45:03;30.63;;;9.35;;
67861;SDS011;54665;51.462;6.698;2022-12-11T08:47:30;30.57;;;9.40;;
67861;SDS011;54665;51.462;6.698;2022-12-11T08:49:55;31.33;;;9.40;;
67861;SDS011;54665;51.462;6.698;2022-12-11T08:52:21;31.33;;;8.63;;
67861;SDS011;54665;51.462;6.698;2022-12-11T08:54:47;32.03;;;9.18;;
67861;SDS011;54665;51.462;6.698;2022-12-11T08:57:12;27.80;;;8.53;;
67861;SDS011;54665;51.462;6.698;2022-12-11T08:59:39;31.42;;;9.68;;
67861;SDS011;54665;51.462;6.698;2022-12-11T09:02:04;31.40;;;8.97;;
67861;SDS011;54665;51.462;6.698;2022-12-11T09:04:30;23.58;;;7.30;;
67861;SDS011;54665;51.462;6.698;2022-12-11T09:06:55;32.53;;;9.67;;
67861;SDS011;54665;51.462;6.698;2022-12-11T09:09:21;24.13;;;8.77;;
67861;SDS011;54665;51.462;6.698;2022-12-11T09:11:46;30.37;;;9.03;;
67861;SDS011;54665;51.462;6.698;2022-12-11T09:14:12;31.17;;;9.33;;
67861;SDS011;54665;51.462;6.698;2022-12-11T09:16:38;30.20;;;9.18;;
67861;SDS011;54665;51.462;6.698;2022-12-11T09:19:07;32.63;;;9.60;;
67861;SDS011;54665;51.462;6.698;2022-12-11T09:21:37;26.02;;;8.90;;
67861;SDS011;54665;51.462;6.698;2022-12-11T09:24:03;24.20;;;7.87;;
67861;SDS011;54665;51.462;6.698;2022-12-11T09:26:29;26.10;;;8.20;;
67861;SDS011;54665;51.462;6.698;2022-12-11T09:28:55;28.20;;;9.20;;
67861;SDS011;54665;51.462;6.698;2022-12-11T09:33:50;31.17;;;8.98;;
67861;SDS011;54665;51.462;6.698;2022-12-11T09:36:19;24.05;;;8.30;;
67861;SDS011;54665;51.462;6.698;2022-12-11T09:38:44;29.93;;;8.97;;
67861;SDS011;54665;51.462;6.698;2022-12-11T09:43:46;28.35;;;9.18;;
67861;SDS011;54665;51.462;6.698;2022-12-11T09:46:32;26.53;;;8.17;;
67861;SDS011;54665;51.462;6.698;2022-12-11T09:48:59;25.67;;;8.30;;
67861;SDS011;54665;51.462;6.698;2022-12-11T09:51:29;26.33;;;8.88;;
67861;SDS011;54665;51.462;6.698;2022-12-11T09:54:04;26.08;;;8.40;;
67861;SDS011;54665;51.462;6.698;2022-12-11T09:56:34;26.00;;;9.27;;
67861;SDS011;54665;51.462;6.698;2022-12-11T09:59:19;23.67;;;8.53;;
67861;SDS011;54665;51.462;6.698;2022-12-11T10:13:24;19.80;;;6.93;;
67861;SDS011;54665;51.462;6.698;2022-12-11T10:18:38;19.17;;;7.13;;
67861;SDS011;54665;51.462;6.698;2022-12-11T10:21:04;19.98;;;6.78;;
67861;SDS011;54665;51.462;6.698;2022-12-11T10:23:32;24.20;;;7.70;;
67861;SDS011;54665;51.462;6.698;2022-12-11T10:26:15;18.30;;;6.60;;
67861;SDS011;54665;51.462;6.698;2022-12-11T10:28:42;16.20;;;5.63;;
67861;SDS011;54665;51.462;6.698;2022-12-11T10:33:53;19.27;;;6.00;;
67861;SDS011;54665;51.462;6.698;2022-12-11T10:36:26;17.85;;;6.63;;
67861;SDS011;54665;51.462;6.698;2022-12-11T10:38:56;23.23;;;7.75;;
67861;SDS011;54665;51.462;6.698;2022-12-11T10:41:23;18.83;;;6.63;;
67861;SDS011;54665;51.462;6.698;2022-12-11T10:43:58;21.00;;;6.83;;
67861;SDS011;54665;51.462;6.698;2022-12-11T10:46:26;22.63;;;7.65;;
67861;SDS011;54665;51.462;6.698;2022-12-11T10:48:57;24.23;;;8.60;;
67861;SDS011;54665;51.462;6.698;2022-12-11T10:51:25;24.48;;;7.90;;
67861;SDS011;54665;51.462;6.698;2022-12-11T10:54:01;20.23;;;6.82;;
67861;SDS011;54665;51.462;6.698;2022-12-11T10:56:31;20.73;;;6.67;;
67861;SDS011;54665;51.462;6.698;2022-12-11T10:58:59;20.85;;;6.80;;
67861;SDS011;54665;51.462;6.698;2022-12-11T11:01:28;24.08;;;8.18;;
67861;SDS011;54665;51.462;6.698;2022-12-11T11:06:21;23.70;;;7.43;;
67861;SDS011;54665;51.462;6.698;2022-12-11T11:08:49;21.42;;;7.57;;
67861;SDS011;54665;51.462;6.698;2022-12-11T11:11:29;23.15;;;7.85;;
67861;SDS011;54665;51.462;6.698;2022-12-11T11:14:07;23.13;;;8.47;;
67861;SDS011;54665;51.462;6.698;2022-12-11T11:16:38;24.48;;;7.82;;
67861;SDS011;54665;51.462;6.698;2022-12-11T11:19:06;26.80;;;8.38;;
67861;SDS011;54665;51.462;6.698;2022-12-11T11:21:45;23.63;;;7.55;;
67861;SDS011;54665;51.462;6.698;2022-12-11T11:27:35;24.63;;;8.33;;
67861;SDS011;54665;51.462;6.698;2022-12-11T11:30:23;21.98;;;7.75;;
67861;SDS011;54665;51.462;6.698;2022-12-11T11:32:57;26.83;;;8.73;;
67861;SDS011;54665;51.462;6.698;2022-12-11T11:35:27;25.05;;;8.00;;
67861;SDS011;54665;51.462;6.698;2022-12-11T11:40:48;27.60;;;8.80;;
67861;SDS011;54665;51.462;6.698;2022-12-11T11:51:35;26.88;;;8.90;;
67861;SDS011;54665;51.462;6.698;2022-12-11T11:54:08;22.27;;;7.87;;
67861;SDS011;54665;51.462;6.698;2022-12-11T11:56:45;23.23;;;9.02;;
67861;SDS011;54665;51.462;6.698;2022-12-11T11:59:21;25.67;;;7.80;;
67861;SDS011;54665;51.462;6.698;2022-12-11T12:01:53;24.55;;;8.05;;
67861;SDS011;54665;51.462;6.698;2022-12-11T12:04:20;22.55;;;7.53;;
67861;SDS011;54665;51.462;6.698;2022-12-11T12:06:51;27.23;;;8.57;;
67861;SDS011;54665;51.462;6.698;2022-12-11T12:12:36;24.02;;;7.68;;
67861;SDS011;54665;51.462;6.698;2022-12-11T12:15:14;19.93;;;7.43;;
67861;SDS011;54665;51.462;6.698;2022-12-11T12:17:56;24.23;;;8.18;;
67861;SDS011;54665;51.462;6.698;2022-12-11T12:20:37;25.00;;;8.70;;
67861;SDS011;54665;51.462;6.698;2022-12-11T12:25:41;23.00;;;8.32;;
67861;SDS011;54665;51.462;6.698;2022-12-11T12:31:00;19.23;;;7.75;;
67861;SDS011;54665;51.462;6.698;2022-12-11T12:33:49;24.67;;;7.70;;
67861;SDS011;54665;51.462;6.698;2022-12-11T12:36:43;22.02;;;7.78;;
67861;SDS011;54665;51.462;6.698;2022-12-11T12:44:21;21.83;;;7.57;;
67861;SDS011;54665;51.462;6.698;2022-12-11T12:46:58;19.77;;;7.82;;
67861;SDS011;54665;51.462;6.698;2022-12-11T12:52:05;22.15;;;8.13;;
67861;SDS011;54665;51.462;6.698;2022-12-11T12:54:37;22.80;;;8.13;;
67861;SDS011;54665;51.462;6.698;2022-12-11T12:57:04;23.58;;;7.88;;
67861;SDS011;54665;51.462;6.698;2022-12-11T12:59:30;23.17;;;8.23;;
67861;SDS011;54665;51.462;6.698;2022-12-11T13:01:57;23.40;;;8.97;;
67861;SDS011;54665;51.462;6.698;2022-12-11T13:04:32;24.02;;;8.60;;
67861;SDS011;54665;51.462;6.698;2022-12-11T13:07:19;23.58;;;8.88;;
67861;SDS011;54665;51.462;6.698;2022-12-11T13:09:58;25.93;;;8.70;;
67861;SDS011;54665;51.462;6.698;2022-12-11T13:12:42;23.52;;;8.45;;
67861;SDS011;54665;51.462;6.698;2022-12-11T13:15:22;23.40;;;8.27;;
67861;SDS011;54665;51.462;6.698;2022-12-11T13:17:56;25.55;;;8.60;;
67861;SDS011;54665;51.462;6.698;2022-12-11T13:20:23;23.23;;;8.27;;
67861;SDS011;54665;51.462;6.698;2022-12-11T13:22:55;24.33;;;9.03;;
67861;SDS011;54665;51.462;6.698;2022-12-11T13:25:32;28.20;;;9.93;;
67861;SDS011;54665;51.462;6.698;2022-12-11T13:28:21;28.25;;;10.00;;
67861;SDS011;54665;51.462;6.698;2022-12-11T13:33:30;27.10;;;9.27;;
67861;SDS011;54665;51.462;6.698;2022-12-11T13:36:05;22.97;;;8.30;;
67861;SDS011;54665;51.462;6.698;2022-12-11T13:38:48;26.02;;;8.93;;
67861;SDS011;54665;51.462;6.698;2022-12-11T13:41:17;29.05;;;9.38;;
67861;SDS011;54665;51.462;6.698;2022-12-11T13:43:44;26.02;;;8.85;;
67861;SDS011;54665;51.462;6.698;2022-12-11T13:46:12;25.90;;;8.77;;
67861;SDS011;54665;51.462;6.698;2022-12-11T13:48:47;25.57;;;8.33;;
67861;SDS011;54665;51.462;6.698;2022-12-11T13:51:16;28.90;;;9.10;;
67861;SDS011;54665;51.462;6.698;2022-12-11T13:53:43;27.73;;;9.02;;
67861;SDS011;54665;51.462;6.698;2022-12-11T13:56:16;22.27;;;7.00;;
67861;SDS011;54665;51.462;6.698;2022-12-11T13:58:44;22.75;;;7.25;;
67861;SDS011;54665;51.462;6.698;2022-12-11T14:01:14;24.43;;;7.93;;
67861;SDS011;54665;51.462;6.698;2022-12-11T14:04:05;25.60;;;7.70;;
67861;SDS011;54665;51.462;6.698;2022-12-11T14:06:33;22.60;;;8.07;;
67861;SDS011;54665;51.462;6.698;2022-12-11T14:09:01;21.40;;;7.75;;
67861;SDS011;54665;51.462;6.698;2022-12-11T14:11:38;24.98;;;8.05;;
67861;SDS011;54665;51.462;6.698;2022-12-11T14:14:07;22.63;;;7.20;;
67861;SDS011;54665;51.462;6.698;2022-12-11T14:16:58;23.33;;;8.23;;
67861;SDS011;54665;51.462;6.698;2022-12-11T14:19:24;24.45;;;8.45;;
67861;SDS011;54665;51.462;6.698;2022-12-11T14:21:57;23.97;;;8.00;;
67861;SDS011;54665;51.462;6.698;2022-12-11T14:24:27;21.65;;;7.45;;
67861;SDS011;54665;51.462;6.698;2022-12-11T14:26:54;21.65;;;7.85;;
67861;SDS011;54665;51.462;6.698;2022-12-11T14:29:30;25.02;;;8.25;;
67861;SDS011;54665;51.462;6.698;2022-12-11T14:32:01;18.08;;;6.07;;
67861;SDS011;54665;51.462;6.698;2022-12-11T14:34:40;22.33;;;7.90;;
67861;SDS011;54665;51.462;6.698;2022-12-11T14:37:09;24.08;;;8.13;;
67861;SDS011;54665;51.462;6.698;2022-12-11T14:42:31;20.70;;;7.05;;
67861;SDS011;54665;51.462;6.698;2022-12-11T14:45:05;21.13;;;7.53;;
67861;SDS011;54665;51.462;6.698;2022-12-11T14:47:36;21.40;;;7.37;;
67861;SDS011;54665;51.462;6.698;2022-12-11T14:50:07;22.92;;;7.85;;
67861;SDS011;54665;51.462;6.698;2022-12-11T14:52:46;22.77;;;8.15;;
67861;SDS011;54665;51.462;6.698;2022-12-11T14:55:17;20.20;;;6.97;;
67861;SDS011;54665;51.462;6.698;2022-12-11T14:57:46;21.25;;;7.60;;
67861;SDS011;54665;51.462;6.698;2022-12-11T15:00:54;21.87;;;7.53;;
67861;SDS011;54665;51.462;6.698;2022-12-11T15:03:06;21.90;;;7.50;;
67861;SDS011;54665;51.462;6.698;2022-12-11T15:05:55;22.15;;;7.70;;
67861;SDS011;54665;51.462;6.698;2022-12-11T15:08:25;25.20;;;7.45;;
67861;SDS011;54665;51.462;6.698;2022-12-11T15:11:03;22.63;;;7.80;;
67861;SDS011;54665;51.462;6.698;2022-12-11T15:13:35;18.23;;;6.80;;
67861;SDS011;54665;51.462;6.698;2022-12-11T15:16:03;20.25;;;7.32;;
67861;SDS011;54665;51.462;6.698;2022-12-11T15:18:32;23.30;;;8.32;;
67861;SDS011;54665;51.462;6.698;2022-12-11T15:20:59;22.88;;;7.43;;
67861;SDS011;54665;51.462;6.698;2022-12-11T15:23:27;26.05;;;8.27;;
67861;SDS011;54665;51.462;6.698;2022-12-11T15:25:57;25.27;;;8.50;;
67861;SDS011;54665;51.462;6.698;2022-12-11T15:28:26;28.75;;;8.20;;
67861;SDS011;54665;51.462;6.698;2022-12-11T15:31:01;23.83;;;8.15;;
67861;SDS011;54665;51.462;6.698;2022-12-11T15:33:28;23.52;;;8.00;;
67861;SDS011;54665;51.462;6.698;2022-12-11T15:35:59;25.80;;;8.00;;
67861;SDS011;54665;51.462;6.698;2022-12-11T15:38:27;23.83;;;8.48;;
67861;SDS011;54665;51.462;6.698;2022-12-11T15:41:13;24.00;;;8.43;;
67861;SDS011;54665;51.462;6.698;2022-12-11T15:43:39;24.63;;;8.43;;
67861;SDS011;54665;51.462;6.698;2022-12-11T15:46:05;19.03;;;6.60;;
67861;SDS011;54665;51.462;6.698;2022-12-11T15:48:31;23.20;;;7.78;;
67861;SDS011;54665;51.462;6.698;2022-12-11T15:50:57;25.50;;;8.40;;
67861;SDS011;54665;51.462;6.698;2022-12-11T15:53:22;24.47;;;8.40;;
67861;SDS011;54665;51.462;6.698;2022-12-11T15:55:48;24.70;;;8.70;;
67861;SDS011;54665;51.462;6.698;2022-12-11T15:58:16;23.65;;;7.72;;
67861;SDS011;54665;51.462;6.698;2022-12-11T16:00:43;22.77;;;8.15;;